Pagrindinis puslapis
METAR-TAF:

METAR-TAF

Oro uostai :

Northway, Aliaska, Jungtinės Amerikos Valstijos

platuma: 62-57-40N, ilguma: 141-55-44W, Aukštis: 523 m

Dabartinis oras

Ataskaita buvo paskelbta 28 minutes, ne 02:53 UTC
Ramus vėjas
Temperatūra -31°C
Drėgmė 61%
Slėgis 1019 hPa
Matomumas: 16.1 km
Mažai debesys ne aukštis 6000 ft

METAR: PAOR 170253Z 00000KT 10SM FEW060 M31/M36 A3010 RMK AO2 SLP302 T13111356 51002 PNO

Laikas: 18:21 (03:21 UTC)

Prognozė

Ataskaita buvo paskelbta 3 valandos ir 43 minutes, ne 23:38 UTC
Prognozė galioja nuo 17 metu 00 UTC su 17 metu 24 UTC
Vėjas 2 kt nuo kintamojo kryptimis
Matomumas: 10 km
Mažai debesys ne aukštis 7000 ft
Nuo 17 metu 1500 UTC
Vėjas 2 kt nuo kintamojo kryptimis
Matomumas: 10 km
Išsisklaidę debesys ne aukštis 6000 ft
Su prošvaistėmis ne aukštis 12000 ft

TAF: PAOR 162338Z 1700/1724 VRB02KT P6SM FEW070 FM171500 VRB02KT P6SM SCT060 BKN120

Orai ataskaitas ir orų prognozės (METAR, TAF).

turimą stotys yra geltonos ir raudonos taškus žemėlapyje.

Perkelti pele per norėdami pamatyti stoties vardą.

Tada spustelėkite, norėdami matyti oro stebėjimo ir prognozės.

Norėdami pakeisti žemėlapį: spustelėkite ant žalios mygtukų su juodo kryžiaus žemyn,; žalią mygtuką su brūkšneliu, jei norite nutolinti; arba žalių rodyklių gretimoms žemėlapius.


METAR-TAF: